createdAt,value
2018-12-01T00:01:34.709Z,21.10
2018-12-01T00:04:09.359Z,21.43
2018-12-01T00:06:43.434Z,23.57
2018-12-01T00:09:17.505Z,25.27
2018-12-01T00:11:51.978Z,21.93
2018-12-01T00:14:25.942Z,22.80
2018-12-01T00:17:00.451Z,20.63
2018-12-01T00:19:34.981Z,20.27
2018-12-01T00:22:08.905Z,35.57
2018-12-01T00:24:42.875Z,23.00
2018-12-01T00:27:16.792Z,22.70
2018-12-01T00:29:50.790Z,28.70
2018-12-01T00:32:24.782Z,24.63
2018-12-01T00:34:58.904Z,22.90
2018-12-01T00:37:32.812Z,28.57
2018-12-01T00:40:10.866Z,19.60
2018-12-01T00:42:44.836Z,24.60
2018-12-01T00:45:19.725Z,27.53
2018-12-01T00:47:54.335Z,22.70
2018-12-01T00:50:28.318Z,21.50
2018-12-01T00:53:02.286Z,25.80
2018-12-01T00:55:36.268Z,21.80
2018-12-01T00:58:10.192Z,26.67
2018-12-01T01:00:44.369Z,30.17
2018-12-01T01:03:18.294Z,21.17
2018-12-01T01:05:52.238Z,23.37
2018-12-01T01:08:26.146Z,28.07
2018-12-01T01:11:00.326Z,20.73
2018-12-01T01:13:34.255Z,21.63
2018-12-01T01:16:08.244Z,20.00
2018-12-01T01:18:42.175Z,46.17
2018-12-01T01:21:16.116Z,21.30
2018-12-01T01:23:50.021Z,22.03
2018-12-01T01:26:24.106Z,23.77
2018-12-01T01:28:58.007Z,23.83
2018-12-01T01:31:31.960Z,20.17
2018-12-01T01:34:06.172Z,28.30
2018-12-01T01:36:40.213Z,19.70
2018-12-01T01:39:14.189Z,26.93
2018-12-01T01:41:48.188Z,21.80
2018-12-01T01:44:22.154Z,30.27
2018-12-01T01:46:56.160Z,58.77
2018-12-01T01:49:30.065Z,36.03
2018-12-01T01:52:04.053Z,23.93
2018-12-01T01:54:37.940Z,21.87
2018-12-01T01:57:12.030Z,40.43
2018-12-01T01:59:45.948Z,25.13
2018-12-01T02:02:19.969Z,31.83
2018-12-01T02:04:53.898Z,36.40
2018-12-01T02:07:27.899Z,28.27
2018-12-01T02:10:01.888Z,56.53
2018-12-01T02:12:35.930Z,69.07
2018-12-01T02:15:11.084Z,26.53
2018-12-01T02:17:45.032Z,39.73
2018-12-01T02:20:19.262Z,36.07
2018-12-01T02:22:53.285Z,38.67
2018-12-01T02:25:27.208Z,78.57
2018-12-01T02:28:01.288Z,39.60
2018-12-01T02:30:35.287Z,35.47
2018-12-01T02:33:09.326Z,30.20
2018-12-01T02:35:43.258Z,75.73
2018-12-01T02:38:17.254Z,31.03
2018-12-01T02:40:51.237Z,77.23
2018-12-01T02:43:25.327Z,46.93
2018-12-01T02:46:10.186Z,32.23
2018-12-01T02:48:44.177Z,39.90
2018-12-01T02:51:18.211Z,44.77
2018-12-01T02:53:52.202Z,37.13
2018-12-01T02:56:26.174Z,69.90
2018-12-01T02:59:00.233Z,31.93
2018-12-01T03:01:34.212Z,64.20
2018-12-01T03:04:08.301Z,30.10
2018-12-01T03:06:42.282Z,37.00
2018-12-01T03:09:16.453Z,37.23
2018-12-01T03:11:50.425Z,33.17
2018-12-01T03:14:24.455Z,71.97
2018-12-01T03:16:58.487Z,36.43
2018-12-01T03:19:32.560Z,95.40
2018-12-01T03:22:06.715Z,39.53
2018-12-01T03:24:40.724Z,45.73
2018-12-01T03:27:14.696Z,38.37
2018-12-01T03:29:48.746Z,33.57
2018-12-01T03:32:22.729Z,51.77
2018-12-01T03:34:57.131Z,35.20
2018-12-01T03:37:31.066Z,36.13
2018-12-01T03:40:05.987Z,40.70
2018-12-01T03:42:39.951Z,31.77
2018-12-01T03:45:18.858Z,34.37
2018-12-01T03:47:52.852Z,34.83
2018-12-01T03:50:26.875Z,35.77
2018-12-01T03:53:00.883Z,41.53
2018-12-01T03:55:35.381Z,71.73
2018-12-01T03:58:09.383Z,64.80
2018-12-01T04:00:43.380Z,38.77
2018-12-01T04:03:17.334Z,36.87
2018-12-01T04:05:51.551Z,39.50
2018-12-01T04:08:25.505Z,34.50
2018-12-01T04:10:59.518Z,37.37
2018-12-01T04:13:33.475Z,49.83
2018-12-01T04:16:07.731Z,29.90
2018-12-01T04:18:41.758Z,28.93
2018-12-01T04:21:15.754Z,29.80
2018-12-01T04:23:49.756Z,46.40
2018-12-01T04:26:23.767Z,36.80
2018-12-01T04:28:57.725Z,97.57
2018-12-01T04:31:31.755Z,44.23
2018-12-01T04:34:06.290Z,41.40
2018-12-01T04:36:40.421Z,49.13
2018-12-01T04:39:14.380Z,46.13
2018-12-01T04:41:48.473Z,41.70
2018-12-01T04:44:22.560Z,46.37
2018-12-01T04:46:56.624Z,50.03
2018-12-01T04:49:30.597Z,125.03
2018-12-01T04:52:04.574Z,66.47
2018-12-01T04:54:38.563Z,66.97
2018-12-01T04:57:13.076Z,52.60
2018-12-01T04:59:47.032Z,46.33
2018-12-01T05:02:21.108Z,58.90
2018-12-01T05:04:55.123Z,56.23
2018-12-01T05:07:29.155Z,61.73
2018-12-01T05:10:03.173Z,46.80
2018-12-01T05:12:37.497Z,39.97
2018-12-01T05:15:14.614Z,44.57
2018-12-01T05:17:48.742Z,68.00
2018-12-01T05:20:23.685Z,51.70
2018-12-01T05:22:57.733Z,50.63
2018-12-01T05:25:31.825Z,44.37
2018-12-01T05:28:05.929Z,41.17
2018-12-01T05:30:39.960Z,44.63
2018-12-01T05:33:14.007Z,37.97
2018-12-01T05:35:47.992Z,34.93
2018-12-01T05:38:21.983Z,37.30
2018-12-01T05:40:56.089Z,37.23
2018-12-01T05:43:30.065Z,41.30
2018-12-01T05:46:04.472Z,46.63
2018-12-01T05:48:38.579Z,39.13
2018-12-01T05:51:12.560Z,40.50
2018-12-01T05:53:47.748Z,42.00
2018-12-01T05:56:21.983Z,40.83
2018-12-01T05:58:56.294Z,45.70
2018-12-01T06:01:30.438Z,37.17
2018-12-01T06:04:04.474Z,40.17
2018-12-01T06:06:38.456Z,36.10
2018-12-01T06:09:13.728Z,37.77
2018-12-01T06:11:49.463Z,39.87
2018-12-01T06:14:24.019Z,32.43
2018-12-01T06:16:58.708Z,33.03
2018-12-01T06:19:33.281Z,40.13
2018-12-01T06:22:07.374Z,40.67
2018-12-01T06:24:41.530Z,32.47
2018-12-01T06:27:15.829Z,33.53
2018-12-01T06:29:50.280Z,34.47
2018-12-01T06:32:24.273Z,36.57
2018-12-01T06:34:58.307Z,33.13
2018-12-01T06:37:32.339Z,31.93
2018-12-01T06:40:10.224Z,39.00
2018-12-01T06:42:44.659Z,31.63
2018-12-01T06:45:19.238Z,29.90
2018-12-01T06:47:53.273Z,32.87
2018-12-01T06:50:27.294Z,35.70
2018-12-01T06:53:01.280Z,29.97
2018-12-01T06:55:35.293Z,27.30
2018-12-01T06:58:09.293Z,26.27
2018-12-01T07:00:43.266Z,33.20
2018-12-01T07:03:17.233Z,34.23
2018-12-01T07:05:51.270Z,30.27
2018-12-01T07:08:25.238Z,30.53
2018-12-01T07:10:59.413Z,37.10
2018-12-01T07:13:33.379Z,28.93
2018-12-01T07:16:08.036Z,31.10
2018-12-01T07:18:52.951Z,27.20
2018-12-01T07:21:27.106Z,41.67
2018-12-01T07:24:01.175Z,26.47
2018-12-01T07:26:35.138Z,29.70
2018-12-01T07:29:09.304Z,25.70
2018-12-01T07:31:43.307Z,28.63
2018-12-01T07:34:17.318Z,29.53
2018-12-01T07:36:51.374Z,32.27
2018-12-01T07:39:25.331Z,27.60
2018-12-01T07:41:59.365Z,23.67
2018-12-01T07:44:33.363Z,30.00
2018-12-01T07:47:07.609Z,23.87
2018-12-01T07:49:41.544Z,24.70
2018-12-01T07:52:15.535Z,29.07
2018-12-01T07:54:49.539Z,112.80
2018-12-01T07:57:23.617Z,93.57
2018-12-01T07:59:57.575Z,29.90
2018-12-01T08:02:31.578Z,29.90
2018-12-01T08:05:05.880Z,29.87
2018-12-01T08:07:40.062Z,24.53
2018-12-01T08:10:15.175Z,26.27
2018-12-01T08:12:49.161Z,30.30
2018-12-01T08:15:24.054Z,25.63
2018-12-01T08:17:57.280Z,29.40
2018-12-01T08:20:31.257Z,28.80
2018-12-01T08:23:05.678Z,28.10
2018-12-01T08:25:39.622Z,26.77
2018-12-01T08:28:16.266Z,25.00
2018-12-01T08:30:50.670Z,24.60
2018-12-01T08:33:24.736Z,26.47
2018-12-01T08:35:58.717Z,21.60
2018-12-01T08:38:32.838Z,19.10
2018-12-01T08:41:06.807Z,24.47
2018-12-01T08:43:40.815Z,22.30
2018-12-01T08:46:14.778Z,22.03
2018-12-01T08:48:48.789Z,19.00
2018-12-01T08:51:22.793Z,19.70
2018-12-01T08:53:57.033Z,15.77
2018-12-01T08:56:30.977Z,18.77
2018-12-01T08:59:05.041Z,22.20
2018-12-01T09:01:38.978Z,25.37
2018-12-01T09:04:13.851Z,23.37
2018-12-01T09:06:47.037Z,22.10
2018-12-01T09:09:21.055Z,20.97
2018-12-01T09:11:54.999Z,21.27
2018-12-01T09:14:29.021Z,23.43
2018-12-01T09:17:03.045Z,19.97
2018-12-01T09:19:37.057Z,19.43
2018-12-01T09:22:11.033Z,18.43
2018-12-01T09:24:45.113Z,23.47
2018-12-01T09:27:22.546Z,21.23
2018-12-01T09:29:53.175Z,18.03
2018-12-01T09:32:27.113Z,24.13
2018-12-01T09:35:01.399Z,19.93
2018-12-01T09:37:35.440Z,21.53
2018-12-01T09:40:13.554Z,19.07
2018-12-01T09:42:47.651Z,17.40
2018-12-01T09:45:25.564Z,17.80
2018-12-01T09:47:59.533Z,19.97
2018-12-01T09:50:33.549Z,17.43
2018-12-01T09:53:08.039Z,21.13
2018-12-01T09:55:42.127Z,18.63
2018-12-01T09:58:16.095Z,16.73
2018-12-01T10:00:50.192Z,16.50
2018-12-01T10:03:24.185Z,15.40
2018-12-01T10:05:58.184Z,13.63
2018-12-01T10:08:32.184Z,16.10
2018-12-01T10:11:06.521Z,18.87
2018-12-01T10:13:41.106Z,14.07
2018-12-01T10:16:15.307Z,17.63
2018-12-01T10:18:49.412Z,16.80
2018-12-01T10:21:23.526Z,15.03
2018-12-01T10:23:57.492Z,13.47
2018-12-01T10:26:31.719Z,13.07
2018-12-01T10:29:05.694Z,16.53
2018-12-01T10:31:39.713Z,17.83
2018-12-01T10:34:13.697Z,13.57
2018-12-01T10:36:47.905Z,12.83
2018-12-01T10:39:21.910Z,14.57
2018-12-01T10:41:56.200Z,12.43
2018-12-01T10:44:30.262Z,13.50
2018-12-01T10:47:04.287Z,14.87
2018-12-01T10:49:38.249Z,11.63
2018-12-01T10:52:12.318Z,13.27
2018-12-01T10:54:46.303Z,14.53
2018-12-01T10:57:20.344Z,12.73
2018-12-01T10:59:54.297Z,14.00
2018-12-01T11:02:33.516Z,11.50
2018-12-01T11:05:07.534Z,13.87
2018-12-01T11:07:41.494Z,13.90
2018-12-01T11:10:16.469Z,12.60
2018-12-01T11:12:49.944Z,13.20
2018-12-01T11:15:23.897Z,15.07
2018-12-01T11:17:57.938Z,12.50
2018-12-01T11:20:32.014Z,11.33
2018-12-01T11:23:06.540Z,9.85
2018-12-01T11:25:40.828Z,9.83
2018-12-01T11:28:14.941Z,12.53
2018-12-01T11:30:48.907Z,13.03
2018-12-01T11:33:22.920Z,12.78
2018-12-01T11:35:56.912Z,10.40
2018-12-01T11:38:31.028Z,14.30
2018-12-01T11:41:05.131Z,10.67
2018-12-01T11:43:39.224Z,9.68
2018-12-01T11:46:13.245Z,10.60
2018-12-01T11:48:47.266Z,10.60
2018-12-01T11:51:21.240Z,10.78
2018-12-01T11:53:55.800Z,9.88
2018-12-01T11:56:29.792Z,11.60
2018-12-01T11:59:04.021Z,10.65
2018-12-01T12:01:38.090Z,16.83
2018-12-01T12:04:12.075Z,11.12
2018-12-01T12:06:46.271Z,8.65
2018-12-01T12:09:20.359Z,11.38
2018-12-01T12:11:54.316Z,9.47
2018-12-01T12:14:28.311Z,12.18
2018-12-01T12:17:02.294Z,10.33
2018-12-01T12:19:36.365Z,14.03
2018-12-01T12:22:10.317Z,9.40
2018-12-01T12:24:44.299Z,10.78
2018-12-01T12:27:18.258Z,9.47
2018-12-01T12:29:52.545Z,16.00
2018-12-01T12:32:26.503Z,9.13
2018-12-01T12:35:00.498Z,10.48
2018-12-01T12:37:34.389Z,8.47
2018-12-01T12:40:13.590Z,8.00
2018-12-01T12:42:47.603Z,11.83
2018-12-01T12:45:21.705Z,7.35
2018-12-01T12:47:55.765Z,10.53
2018-12-01T12:50:29.799Z,10.10
2018-12-01T12:53:03.747Z,10.78
2018-12-01T12:55:37.783Z,11.83
2018-12-01T12:58:11.845Z,8.13
2018-12-01T13:00:45.938Z,11.03
2018-12-01T13:03:19.875Z,7.23
2018-12-01T13:05:53.982Z,10.30
2018-12-01T13:08:27.981Z,9.93
2018-12-01T13:11:02.134Z,9.33
2018-12-01T13:13:36.187Z,8.08
2018-12-01T13:16:10.254Z,9.78
2018-12-01T13:18:44.199Z,7.62
2018-12-01T13:21:18.296Z,7.33
2018-12-01T13:23:52.385Z,8.60
2018-12-01T13:26:26.409Z,7.83
2018-12-01T13:29:00.392Z,9.63
2018-12-01T13:31:35.368Z,8.38
2018-12-01T13:34:09.388Z,11.53
2018-12-01T13:36:43.479Z,9.10
2018-12-01T13:39:17.461Z,10.07
2018-12-01T13:41:51.446Z,6.58
2018-12-01T13:44:25.399Z,10.08
2018-12-01T13:46:59.508Z,5.63
2018-12-01T13:49:33.580Z,9.70
2018-12-01T13:52:07.667Z,9.50
2018-12-01T13:54:41.835Z,7.00
2018-12-01T13:57:15.887Z,6.80
2018-12-01T13:59:49.870Z,8.53
2018-12-01T14:02:23.868Z,7.53
2018-12-01T14:04:57.835Z,6.78
2018-12-01T14:07:31.827Z,8.83
2018-12-01T14:10:11.534Z,8.87
2018-12-01T14:12:46.875Z,6.83
2018-12-01T14:15:23.565Z,9.35
2018-12-01T14:17:57.718Z,9.20
2018-12-01T14:20:31.670Z,9.87
2018-12-01T14:23:05.826Z,6.17
2018-12-01T14:25:39.910Z,8.50
2018-12-01T14:28:14.091Z,9.53
2018-12-01T14:30:48.028Z,8.77
2018-12-01T14:33:22.125Z,9.73
2018-12-01T14:35:56.086Z,8.27
2018-12-01T14:38:30.079Z,6.77
2018-12-01T14:41:04.105Z,5.70
2018-12-01T14:43:38.078Z,7.17
2018-12-01T14:46:12.087Z,5.15
2018-12-01T14:48:46.073Z,83.67
2018-12-01T14:51:20.037Z,6.40
2018-12-01T14:53:54.056Z,6.27
2018-12-01T14:56:28.129Z,5.57
2018-12-01T14:59:02.233Z,7.57
2018-12-01T15:01:36.205Z,8.47
2018-12-01T15:04:10.289Z,3.23
2018-12-01T15:06:44.247Z,3.43
2018-12-01T15:09:18.238Z,5.97
2018-12-01T15:11:52.169Z,4.07
2018-12-01T15:14:26.170Z,7.20
2018-12-01T15:17:00.136Z,6.47
2018-12-01T15:19:34.147Z,4.53
2018-12-01T15:22:08.126Z,7.87
2018-12-01T15:24:42.136Z,3.57
2018-12-01T15:27:16.101Z,7.33
2018-12-01T15:29:50.106Z,7.60
2018-12-01T15:32:24.149Z,7.67
2018-12-01T15:34:58.184Z,6.20
2018-12-01T15:37:32.250Z,4.40
2018-12-01T15:40:10.175Z,5.17
2018-12-01T15:42:44.188Z,9.77
2018-12-01T15:45:20.178Z,5.90
2018-12-01T15:47:54.200Z,5.83
2018-12-01T15:50:28.281Z,5.83
2018-12-01T15:53:02.260Z,7.27
2018-12-01T15:55:36.391Z,6.67
2018-12-01T15:58:10.407Z,3.83
2018-12-01T16:00:45.019Z,7.33
2018-12-01T16:03:19.055Z,10.53
2018-12-01T16:05:53.064Z,8.97
2018-12-01T16:08:27.058Z,8.97
2018-12-01T16:11:01.100Z,6.70
2018-12-01T16:13:35.064Z,6.00
2018-12-01T16:16:10.113Z,10.47
2018-12-01T16:18:44.107Z,5.77
2018-12-01T16:21:18.252Z,6.63
2018-12-01T16:23:52.313Z,6.80
2018-12-01T16:26:26.308Z,7.23
2018-12-01T16:29:00.272Z,9.83
2018-12-01T16:31:34.390Z,5.80
2018-12-01T16:34:08.418Z,5.87
2018-12-01T16:36:43.089Z,4.97
2018-12-01T16:39:17.074Z,4.90
2018-12-01T16:41:51.430Z,7.83
2018-12-01T16:44:25.504Z,6.77
2018-12-01T16:46:59.511Z,3.90
2018-12-01T16:49:33.575Z,6.37
2018-12-01T16:52:07.897Z,7.83
2018-12-01T16:54:41.893Z,5.03
2018-12-01T16:57:15.937Z,4.97
2018-12-01T16:59:49.918Z,5.43
2018-12-01T17:02:23.950Z,7.50
2018-12-01T17:04:57.897Z,7.23
2018-12-01T17:07:32.564Z,5.47
2018-12-01T17:10:11.312Z,7.20
2018-12-01T17:12:46.083Z,4.93
2018-12-01T17:15:21.028Z,8.20
2018-12-01T17:17:55.077Z,5.77
2018-12-01T17:20:29.046Z,7.37
2018-12-01T17:23:03.236Z,6.03
2018-12-01T17:25:37.237Z,5.87
2018-12-01T17:28:13.115Z,8.23
2018-12-01T17:30:47.186Z,7.27
2018-12-01T17:33:21.239Z,9.13
2018-12-01T17:35:55.252Z,6.43
2018-12-01T17:38:29.322Z,9.60
2018-12-01T17:41:11.268Z,9.50
2018-12-01T17:43:50.859Z,7.90
2018-12-01T17:46:24.816Z,5.90
2018-12-01T17:48:58.926Z,6.37
2018-12-01T17:51:32.902Z,11.47
2018-12-01T17:54:11.984Z,9.47
2018-12-01T17:56:46.031Z,7.87
2018-12-01T17:59:20.279Z,9.37
2018-12-01T18:01:54.273Z,10.00
2018-12-01T18:04:28.234Z,6.37
2018-12-01T18:07:02.183Z,10.33
2018-12-01T18:09:36.188Z,9.33
2018-12-01T18:12:10.366Z,9.03
2018-12-01T18:14:44.449Z,8.73
2018-12-01T18:17:18.423Z,6.67
2018-12-01T18:19:52.584Z,10.13
2018-12-01T18:22:26.557Z,6.70
2018-12-01T18:25:00.564Z,7.33
2018-12-01T18:27:34.546Z,6.77
2018-12-01T18:30:13.022Z,8.67
2018-12-01T18:32:48.020Z,7.00
2018-12-01T18:35:22.006Z,7.73
2018-12-01T18:37:56.020Z,8.47
2018-12-01T18:40:31.432Z,7.53
2018-12-01T18:43:07.081Z,9.60
2018-12-01T18:45:46.208Z,11.90
2018-12-01T18:48:21.059Z,9.03
2018-12-01T18:50:56.180Z,10.37
2018-12-01T18:53:30.379Z,7.83
2018-12-01T18:56:04.400Z,11.23
2018-12-01T18:58:41.237Z,8.87
2018-12-01T19:01:15.863Z,7.90
2018-12-01T19:03:50.272Z,8.33
2018-12-01T19:06:24.779Z,7.70
2018-12-01T19:08:58.751Z,7.30
2018-12-01T19:11:32.849Z,6.03
2018-12-01T19:14:08.312Z,12.40
2018-12-01T19:16:42.484Z,8.77
2018-12-01T19:19:16.473Z,8.90
2018-12-01T19:21:50.541Z,11.93
2018-12-01T19:24:25.631Z,7.83
2018-12-01T19:26:59.813Z,10.67
2018-12-01T19:29:35.042Z,7.07
2018-12-01T19:32:09.227Z,15.77
2018-12-01T19:34:43.240Z,5.63
2018-12-01T19:37:17.243Z,11.50
2018-12-01T19:39:51.207Z,6.60
2018-12-01T19:42:25.204Z,8.03
2018-12-01T19:44:59.191Z,7.47
2018-12-01T19:47:33.214Z,8.30
2018-12-01T19:50:13.166Z,11.50
2018-12-01T19:52:47.494Z,6.43
2018-12-01T19:55:23.100Z,9.63
2018-12-01T19:57:58.032Z,8.27
2018-12-01T20:00:33.108Z,7.77
2018-12-01T20:03:09.738Z,11.57
2018-12-01T20:05:44.780Z,7.57
2018-12-01T20:08:19.947Z,7.20
2018-12-01T20:10:58.167Z,9.27
2018-12-01T20:13:44.827Z,6.07
2018-12-01T20:16:24.198Z,9.87
2018-12-01T20:18:58.307Z,9.60
2018-12-01T20:21:32.352Z,6.87
2018-12-01T20:24:07.807Z,8.83
2018-12-01T20:26:42.893Z,7.87
2018-12-01T20:29:16.988Z,6.23
2018-12-01T20:31:50.958Z,9.07
2018-12-01T20:34:25.082Z,7.80
2018-12-01T20:37:02.548Z,6.23
2018-12-01T20:39:39.618Z,7.23
2018-12-01T20:42:13.581Z,10.07
2018-12-01T20:44:47.625Z,7.67
2018-12-01T20:47:21.585Z,6.90
2018-12-01T20:49:55.643Z,7.13
2018-12-01T20:52:29.681Z,8.73
2018-12-01T20:55:04.029Z,9.50
2018-12-01T20:57:38.001Z,6.80
2018-12-01T21:00:13.160Z,8.67
2018-12-01T21:02:47.122Z,8.97
2018-12-01T21:05:23.355Z,9.37
2018-12-01T21:08:02.097Z,7.97
2018-12-01T21:10:33.270Z,7.33
2018-12-01T21:13:07.604Z,11.63
2018-12-01T21:15:41.884Z,7.37
2018-12-01T21:18:15.829Z,6.47
2018-12-01T21:20:49.807Z,6.93
2018-12-01T21:23:23.855Z,7.70
2018-12-01T21:25:57.870Z,9.63
2018-12-01T21:28:31.872Z,5.63
2018-12-01T21:31:06.900Z,9.10
2018-12-01T21:33:41.299Z,7.07
2018-12-01T21:36:16.414Z,8.50
2018-12-01T21:38:51.107Z,9.10
2018-12-01T21:41:25.168Z,7.70
2018-12-01T21:43:59.176Z,7.63
2018-12-01T21:46:33.259Z,10.17
2018-12-01T21:49:08.282Z,8.43
2018-12-01T21:51:42.295Z,8.93
2018-12-01T21:54:16.353Z,6.93
2018-12-01T21:56:50.354Z,8.90
2018-12-01T21:59:24.465Z,6.17
2018-12-01T22:01:58.471Z,7.10
2018-12-01T22:04:32.446Z,6.33
2018-12-01T22:07:06.442Z,9.63
2018-12-01T22:09:40.437Z,8.30
2018-12-01T22:12:14.660Z,8.67
2018-12-01T22:14:48.599Z,8.20
2018-12-01T22:17:22.639Z,8.13
2018-12-01T22:19:56.607Z,6.80
2018-12-01T22:22:30.584Z,7.70
2018-12-01T22:25:04.622Z,7.57
2018-12-01T22:27:38.773Z,9.83
2018-12-01T22:30:17.587Z,9.37
2018-12-01T22:32:54.252Z,9.93
2018-12-01T22:35:29.491Z,7.20
2018-12-01T22:38:03.452Z,8.00
2018-12-01T22:40:37.699Z,8.93
2018-12-01T22:43:11.837Z,11.93
2018-12-01T22:45:45.823Z,9.33
2018-12-01T22:48:21.465Z,8.10
2018-12-01T22:50:55.438Z,9.20
2018-12-01T22:53:29.483Z,8.23
2018-12-01T22:56:03.663Z,7.63
2018-12-01T22:58:37.682Z,8.40
2018-12-01T23:01:11.675Z,8.60
2018-12-01T23:03:45.665Z,7.30
2018-12-01T23:06:19.687Z,7.00
2018-12-01T23:08:53.875Z,6.97
2018-12-01T23:11:27.812Z,7.10
2018-12-01T23:14:01.918Z,11.67
2018-12-01T23:16:35.888Z,7.47
2018-12-01T23:19:10.248Z,6.77
2018-12-01T23:21:44.393Z,10.17
2018-12-01T23:24:18.416Z,7.77
2018-12-01T23:26:52.524Z,9.47
2018-12-01T23:29:26.569Z,8.37
2018-12-01T23:32:00.527Z,10.00
2018-12-01T23:34:34.596Z,6.53
2018-12-01T23:37:08.561Z,8.37
2018-12-01T23:39:42.661Z,8.33
2018-12-01T23:42:16.687Z,9.37
2018-12-01T23:44:50.970Z,8.27
2018-12-01T23:47:25.070Z,6.13
2018-12-01T23:49:59.162Z,8.07
2018-12-01T23:52:33.257Z,7.43
2018-12-01T23:55:10.515Z,7.23
2018-12-01T23:57:44.560Z,6.97
